createdAt,value
2023-03-29T00:00:15.378Z,102191.67
2023-03-29T00:02:48.592Z,102189.30
2023-03-29T00:05:23.248Z,102194.27
2023-03-29T00:08:02.070Z,102194.08
2023-03-29T00:10:35.131Z,102197.63
2023-03-29T00:13:06.418Z,102196.22
2023-03-29T00:15:37.653Z,102192.53
2023-03-29T00:18:09.292Z,102189.23
2023-03-29T00:20:41.073Z,102183.13
2023-03-29T00:23:12.346Z,102177.48
2023-03-29T00:25:48.249Z,102177.96
2023-03-29T00:28:19.772Z,102176.19
2023-03-29T00:30:51.546Z,102174.41
2023-03-29T00:33:23.939Z,102175.95
2023-03-29T00:35:55.663Z,102175.73
2023-03-29T00:38:27.270Z,102168.16
2023-03-29T00:40:58.653Z,102163.60
2023-03-29T00:43:30.589Z,102162.92
2023-03-29T00:46:01.655Z,102171.31
2023-03-29T00:48:33.278Z,102167.95
2023-03-29T00:51:09.874Z,102161.16
2023-03-29T00:53:44.499Z,102165.06
2023-03-29T00:56:20.623Z,102165.49
2023-03-29T00:58:56.457Z,102165.02
2023-03-29T01:01:34.212Z,102159.67
2023-03-29T01:04:10.244Z,102154.59
2023-03-29T01:06:45.360Z,102155.67
2023-03-29T01:09:20.412Z,102158.81
2023-03-29T01:11:56.047Z,102152.04
2023-03-29T01:14:34.476Z,102152.73
2023-03-29T01:17:06.736Z,102162.14
2023-03-29T01:19:46.721Z,102158.48
2023-03-29T01:22:26.130Z,102157.27
2023-03-29T01:25:07.756Z,102158.65
2023-03-29T01:27:52.572Z,102152.19
2023-03-29T01:30:30.660Z,102156.92
2023-03-29T01:33:07.651Z,102148.70
2023-03-29T01:35:44.001Z,102142.39
2023-03-29T01:38:21.834Z,102143.76
2023-03-29T01:40:53.515Z,102134.48
2023-03-29T01:43:29.048Z,102125.80
2023-03-29T01:46:06.348Z,102118.67
2023-03-29T01:48:47.835Z,102108.08
2023-03-29T01:51:26.460Z,102108.33
2023-03-29T01:54:02.206Z,102110.86
2023-03-29T01:56:38.849Z,102101.55
2023-03-29T01:59:16.243Z,102093.54
2023-03-29T02:01:52.218Z,102085.81
2023-03-29T02:04:30.006Z,102081.16
2023-03-29T02:07:04.411Z,102078.89
2023-03-29T02:09:38.197Z,102070.15
2023-03-29T02:12:12.138Z,102068.81
2023-03-29T02:14:43.792Z,102072.70
2023-03-29T02:17:23.202Z,102076.70
2023-03-29T02:19:59.461Z,102080.88
2023-03-29T02:22:38.006Z,102079.49
2023-03-29T02:25:10.844Z,102080.59
2023-03-29T02:27:43.071Z,102075.20
2023-03-29T02:30:18.409Z,102075.56
2023-03-29T02:32:58.041Z,102074.32
2023-03-29T02:35:36.302Z,102069.40
2023-03-29T02:38:10.615Z,102061.86
2023-03-29T02:40:43.349Z,102059.39
2023-03-29T02:43:17.245Z,102054.19
2023-03-29T02:45:48.907Z,102054.55
2023-03-29T02:48:22.602Z,102058.75
2023-03-29T02:50:56.695Z,102063.77
2023-03-29T02:53:34.019Z,102056.31
2023-03-29T02:56:06.393Z,102049.09
2023-03-29T02:58:37.478Z,102038.79
2023-03-29T03:01:11.454Z,102037.86
2023-03-29T03:03:43.219Z,102044.77
2023-03-29T03:06:15.417Z,102041.39
2023-03-29T03:08:46.794Z,102041.13
2023-03-29T03:11:18.868Z,102042.79
2023-03-29T03:13:51.688Z,102044.09
2023-03-29T03:16:22.903Z,102046.52
2023-03-29T03:18:54.953Z,102042.64
2023-03-29T03:21:28.325Z,102044.06
2023-03-29T03:23:59.854Z,102040.37
2023-03-29T03:26:31.260Z,102037.85
2023-03-29T03:29:02.178Z,102037.18
2023-03-29T03:31:54.040Z,102041.30
2023-03-29T03:34:44.318Z,102038.52
2023-03-29T03:37:15.860Z,102033.67
2023-03-29T03:39:48.013Z,102038.21
2023-03-29T03:42:19.801Z,102041.44
2023-03-29T03:44:51.895Z,102037.38
2023-03-29T03:47:49.103Z,102039.19
2023-03-29T03:50:40.197Z,102038.47
2023-03-29T03:53:14.670Z,102035.16
2023-03-29T03:56:09.146Z,102034.00
2023-03-29T03:58:50.609Z,102036.11
2023-03-29T04:01:22.258Z,102034.45
2023-03-29T04:03:59.888Z,102035.52
2023-03-29T04:06:32.660Z,102036.98
2023-03-29T04:09:23.650Z,102036.63
2023-03-29T04:12:07.157Z,102040.81
2023-03-29T04:14:38.724Z,102047.27
2023-03-29T04:17:13.589Z,102045.75
2023-03-29T04:20:13.570Z,102039.91
2023-03-29T04:22:45.063Z,102041.52
2023-03-29T04:25:16.912Z,102038.84
2023-03-29T04:27:54.181Z,102045.77
2023-03-29T04:30:42.731Z,102047.63
2023-03-29T04:33:21.603Z,102044.90
2023-03-29T04:35:58.547Z,102042.65
2023-03-29T04:38:30.206Z,102047.39
2023-03-29T04:41:04.023Z,102046.67
2023-03-29T04:43:48.757Z,102050.36
2023-03-29T04:46:28.172Z,102055.92
2023-03-29T04:49:18.295Z,102053.89
2023-03-29T04:51:53.359Z,102051.11
2023-03-29T04:54:26.712Z,102046.23
2023-03-29T04:57:07.380Z,102046.21
2023-03-29T04:59:57.362Z,102050.30
2023-03-29T05:02:48.807Z,102046.52
2023-03-29T05:05:21.184Z,102043.02
2023-03-29T05:07:55.056Z,102042.69
2023-03-29T05:10:31.054Z,102037.90
2023-03-29T05:13:04.144Z,102034.24
2023-03-29T05:15:35.752Z,102033.38
2023-03-29T05:18:07.360Z,102031.27
2023-03-29T05:20:40.521Z,102030.16
2023-03-29T05:23:12.609Z,102022.40
2023-03-29T05:26:15.396Z,102022.45
2023-03-29T05:28:51.618Z,102025.55
2023-03-29T05:31:23.099Z,102022.16
2023-03-29T05:33:56.716Z,102026.21
2023-03-29T05:36:28.530Z,102027.60
2023-03-29T05:38:59.975Z,102027.98
2023-03-29T05:41:32.872Z,102027.40
2023-03-29T05:44:30.690Z,102033.38
2023-03-29T05:47:09.253Z,102037.13
2023-03-29T05:49:40.777Z,102038.33
2023-03-29T05:52:21.519Z,102048.05
2023-03-29T05:54:52.963Z,102044.19
2023-03-29T05:57:24.742Z,102042.34
2023-03-29T05:59:56.688Z,102051.54
2023-03-29T06:02:29.705Z,102053.17
2023-03-29T06:05:03.513Z,102051.53
2023-03-29T06:07:44.079Z,102048.19
2023-03-29T06:10:37.295Z,102049.77
2023-03-29T06:13:31.204Z,102060.71
2023-03-29T06:16:02.259Z,102067.38
2023-03-29T06:18:33.742Z,102062.95
2023-03-29T06:21:05.769Z,102062.97
2023-03-29T06:23:37.534Z,102061.91
2023-03-29T06:26:10.703Z,102063.37
2023-03-29T06:28:43.097Z,102062.08
2023-03-29T06:31:14.718Z,102071.05
2023-03-29T06:33:46.915Z,102078.19
2023-03-29T06:36:28.317Z,102081.51
2023-03-29T06:39:00.047Z,102085.73
2023-03-29T06:42:12.949Z,102086.70
2023-03-29T06:45:09.758Z,102095.96
2023-03-29T06:47:42.183Z,102103.66
2023-03-29T06:50:14.808Z,102098.04
2023-03-29T06:53:01.744Z,102097.55
2023-03-29T06:55:34.668Z,102099.41
2023-03-29T06:58:15.781Z,102101.56
2023-03-29T07:00:48.232Z,102109.45
2023-03-29T07:03:26.036Z,102104.80
2023-03-29T07:06:04.644Z,102104.34
2023-03-29T07:08:40.754Z,102102.25
2023-03-29T07:11:19.130Z,102099.35
2023-03-29T07:13:58.072Z,102106.71
2023-03-29T07:16:30.574Z,102107.45
2023-03-29T07:19:12.824Z,102109.69
2023-03-29T07:21:56.290Z,102117.33
2023-03-29T07:24:36.097Z,102121.40
2023-03-29T07:27:07.465Z,102125.63
2023-03-29T07:29:39.549Z,102126.98
2023-03-29T07:32:11.509Z,102129.46
2023-03-29T07:34:42.946Z,102124.66
2023-03-29T07:37:20.089Z,102119.33
2023-03-29T07:39:52.120Z,102118.86
2023-03-29T07:42:57.073Z,102133.48
2023-03-29T07:45:29.831Z,102143.91
2023-03-29T07:48:08.627Z,102144.75
2023-03-29T07:51:02.857Z,102149.98
2023-03-29T07:53:40.078Z,102148.83
2023-03-29T07:56:17.695Z,102145.48
2023-03-29T07:58:57.342Z,102150.67
2023-03-29T08:01:28.759Z,102145.14
2023-03-29T08:04:18.504Z,102140.63
2023-03-29T08:07:09.245Z,102145.52
2023-03-29T08:10:15.367Z,102147.54
2023-03-29T08:13:13.505Z,102153.36
2023-03-29T08:16:16.938Z,102153.15
2023-03-29T08:18:54.364Z,102156.05
2023-03-29T08:21:26.750Z,102157.77
2023-03-29T08:23:58.054Z,102157.45
2023-03-29T08:26:42.038Z,102155.01
2023-03-29T08:29:13.904Z,102154.17
2023-03-29T08:31:45.260Z,102152.07
2023-03-29T08:34:17.424Z,102153.91
2023-03-29T08:37:02.241Z,102152.59
2023-03-29T08:39:41.907Z,102157.56
2023-03-29T08:42:56.900Z,102160.10
2023-03-29T08:45:39.182Z,102156.52
2023-03-29T08:48:22.399Z,102158.30
2023-03-29T08:50:59.285Z,102154.92
2023-03-29T08:53:36.616Z,102158.77
2023-03-29T08:56:35.950Z,102162.14
2023-03-29T08:59:30.996Z,102161.22
2023-03-29T09:02:11.475Z,102155.97
2023-03-29T09:04:44.577Z,102161.08
2023-03-29T09:07:34.712Z,102169.34
2023-03-29T09:10:06.755Z,102167.14
2023-03-29T09:12:54.891Z,102162.33
2023-03-29T09:15:29.949Z,102159.59
2023-03-29T09:18:26.407Z,102164.34
2023-03-29T09:21:02.144Z,102169.95
2023-03-29T09:23:57.059Z,102171.94
2023-03-29T09:26:49.019Z,102168.86
2023-03-29T09:29:48.962Z,102166.42
2023-03-29T09:32:24.333Z,102165.52
2023-03-29T09:35:14.455Z,102165.01
2023-03-29T09:37:46.818Z,102167.31
2023-03-29T09:40:23.111Z,102167.50
2023-03-29T09:43:09.429Z,102170.67
2023-03-29T09:45:42.281Z,102167.98
2023-03-29T09:48:18.385Z,102162.61
2023-03-29T09:50:57.363Z,102162.41
2023-03-29T09:53:28.520Z,102158.09
2023-03-29T09:56:12.075Z,102160.36
2023-03-29T09:58:55.766Z,102163.20
2023-03-29T10:01:37.306Z,102161.27
2023-03-29T10:04:11.511Z,102166.29
2023-03-29T10:06:49.292Z,102156.23
2023-03-29T10:09:24.362Z,102149.23
2023-03-29T10:12:03.344Z,102148.83
2023-03-29T10:14:38.197Z,102143.25
2023-03-29T10:17:18.104Z,102144.65
2023-03-29T10:19:54.320Z,102143.98
2023-03-29T10:22:28.633Z,102144.52
2023-03-29T10:25:00.003Z,102138.24
2023-03-29T10:27:34.866Z,102137.27
2023-03-29T10:30:20.520Z,102139.05
2023-03-29T10:32:56.858Z,102139.31
2023-03-29T10:35:34.219Z,102143.11
2023-03-29T10:38:12.182Z,102143.64
2023-03-29T10:40:47.506Z,102140.02
2023-03-29T10:43:25.748Z,102146.52
2023-03-29T10:46:06.942Z,102147.13
2023-03-29T10:48:38.496Z,102144.44
2023-03-29T10:51:09.766Z,102136.06
2023-03-29T10:53:41.289Z,102132.41
2023-03-29T10:56:41.466Z,102131.98
2023-03-29T10:59:23.244Z,102131.76
2023-03-29T11:02:09.238Z,102130.00
2023-03-29T11:04:47.657Z,102131.33
2023-03-29T11:07:30.745Z,102125.79
2023-03-29T11:10:15.983Z,102128.48
2023-03-29T11:12:55.380Z,102131.22
2023-03-29T11:15:39.907Z,102133.14
2023-03-29T11:18:35.482Z,102133.08
2023-03-29T11:21:15.013Z,102130.63
2023-03-29T11:23:58.108Z,102130.89
2023-03-29T11:26:38.013Z,102130.98
2023-03-29T11:29:16.338Z,102131.02
2023-03-29T11:32:00.295Z,102134.19
2023-03-29T11:34:37.979Z,102132.74
2023-03-29T11:37:19.944Z,102122.19
2023-03-29T11:40:00.939Z,102123.99
2023-03-29T11:42:35.344Z,102118.83
2023-03-29T11:45:12.581Z,102119.30
2023-03-29T11:47:48.179Z,102117.57
2023-03-29T11:50:23.255Z,102117.79
2023-03-29T11:53:00.043Z,102119.65
2023-03-29T11:55:34.714Z,102119.21
2023-03-29T11:58:13.264Z,102118.85
2023-03-29T12:00:49.987Z,102115.34
2023-03-29T12:03:32.488Z,102110.73
2023-03-29T12:06:09.313Z,102115.88
2023-03-29T12:08:44.179Z,102108.80
2023-03-29T12:11:25.628Z,102112.13
2023-03-29T12:14:01.249Z,102108.08
2023-03-29T12:16:37.218Z,102107.46
2023-03-29T12:19:18.681Z,102099.89
2023-03-29T12:21:50.881Z,102097.94
2023-03-29T12:24:24.728Z,102096.73
2023-03-29T12:27:16.599Z,102100.91
2023-03-29T12:30:10.074Z,102092.65
2023-03-29T12:32:58.548Z,102084.36
2023-03-29T12:36:06.661Z,102083.09
2023-03-29T12:39:12.683Z,102078.79
2023-03-29T12:42:21.308Z,102073.30
2023-03-29T12:45:35.215Z,102070.31
2023-03-29T12:48:07.632Z,102068.58
2023-03-29T12:50:46.212Z,102069.11
2023-03-29T12:53:24.029Z,102071.16
2023-03-29T12:56:08.933Z,102073.27
2023-03-29T12:59:09.031Z,102075.78
2023-03-29T13:01:42.194Z,102073.27
2023-03-29T13:04:19.932Z,102074.55
2023-03-29T13:07:06.069Z,102075.73
2023-03-29T13:09:49.016Z,102068.75
2023-03-29T13:12:27.631Z,102067.88
2023-03-29T13:15:01.863Z,102070.78
2023-03-29T13:17:45.332Z,102067.45
2023-03-29T13:20:43.486Z,102062.33
2023-03-29T13:23:28.031Z,102062.24
2023-03-29T13:26:17.943Z,102066.92
2023-03-29T13:29:06.465Z,102066.60
2023-03-29T13:31:44.317Z,102059.94
2023-03-29T13:34:32.251Z,102058.27
2023-03-29T13:37:17.949Z,102061.50
2023-03-29T13:39:53.642Z,102066.25
2023-03-29T13:42:38.780Z,102065.87
2023-03-29T13:45:17.351Z,102060.77
2023-03-29T13:48:02.649Z,102060.05
2023-03-29T13:50:41.763Z,102063.48
2023-03-29T13:53:24.036Z,102060.34
2023-03-29T13:55:56.232Z,102060.63
2023-03-29T13:58:39.353Z,102061.44
2023-03-29T14:01:16.589Z,102060.20
2023-03-29T14:03:51.736Z,102061.88
2023-03-29T14:06:28.014Z,102058.83
2023-03-29T14:09:00.881Z,102058.52
2023-03-29T14:11:33.073Z,102057.67
2023-03-29T14:14:06.491Z,102059.54
2023-03-29T14:19:34.041Z,102059.64
2023-03-29T14:22:09.323Z,102059.71
2023-03-29T14:24:48.241Z,102059.44
2023-03-29T14:27:19.892Z,102055.70
2023-03-29T14:29:53.850Z,102059.31
2023-03-29T14:32:32.557Z,102061.16
2023-03-29T14:35:03.637Z,102062.55
2023-03-29T14:37:34.810Z,102052.16
2023-03-29T14:40:12.128Z,102050.55
2023-03-29T14:42:43.726Z,102051.32
2023-03-29T14:45:18.126Z,102046.06
2023-03-29T14:47:50.023Z,102047.33
2023-03-29T14:50:25.448Z,102051.27
2023-03-29T14:52:58.032Z,102050.00
2023-03-29T14:55:31.098Z,102050.84
2023-03-29T14:58:02.861Z,102049.21
2023-03-29T15:00:43.606Z,102051.08
2023-03-29T15:03:18.091Z,102051.05
2023-03-29T15:05:55.652Z,102048.45
2023-03-29T15:08:34.125Z,102041.95
2023-03-29T15:11:13.054Z,102042.26
2023-03-29T15:13:45.459Z,102042.70
2023-03-29T15:16:20.274Z,102042.97
2023-03-29T15:18:53.792Z,102041.02
2023-03-29T15:21:30.354Z,102038.46
2023-03-29T15:24:03.420Z,102036.92
2023-03-29T15:26:36.956Z,102035.91
2023-03-29T15:29:13.727Z,102041.54
2023-03-29T15:31:55.296Z,102040.36
2023-03-29T15:34:30.063Z,102040.06
2023-03-29T15:37:02.472Z,102041.77
2023-03-29T15:39:35.248Z,102036.23
2023-03-29T15:42:07.383Z,102039.48
2023-03-29T15:44:41.493Z,102035.68
2023-03-29T15:47:14.477Z,102041.39
2023-03-29T15:49:47.643Z,102040.05
2023-03-29T15:52:18.823Z,102034.91
2023-03-29T15:54:49.754Z,102034.98
2023-03-29T15:57:21.921Z,102039.66
2023-03-29T15:59:53.434Z,102038.40
2023-03-29T16:02:26.144Z,102036.60
2023-03-29T16:04:57.119Z,102030.92
2023-03-29T16:07:28.248Z,102032.25
2023-03-29T16:10:00.089Z,102033.15
2023-03-29T16:12:31.609Z,102033.27
2023-03-29T16:15:02.665Z,102033.98
2023-03-29T16:17:34.466Z,102033.42
2023-03-29T16:20:07.313Z,102037.24
2023-03-29T16:22:38.329Z,102033.36
2023-03-29T16:25:15.890Z,102034.09
2023-03-29T16:27:47.092Z,102031.60
2023-03-29T16:30:18.853Z,102030.66
2023-03-29T16:32:49.925Z,102031.69
2023-03-29T16:35:26.647Z,102041.23
2023-03-29T16:37:58.335Z,102042.76
2023-03-29T16:40:29.282Z,102045.43
2023-03-29T16:43:00.496Z,102042.05
2023-03-29T16:45:31.855Z,102040.80
2023-03-29T16:48:05.470Z,102036.89
2023-03-29T16:50:36.806Z,102038.55
2023-03-29T16:53:07.973Z,102033.52
2023-03-29T16:55:39.377Z,102032.02
2023-03-29T16:58:10.421Z,102033.15
2023-03-29T17:00:41.854Z,102033.95
2023-03-29T17:03:13.267Z,102034.83
2023-03-29T17:05:50.394Z,102040.98
2023-03-29T17:08:22.606Z,102034.09
2023-03-29T17:10:56.866Z,102035.88
2023-03-29T17:13:28.520Z,102038.23
2023-03-29T17:16:00.260Z,102032.53
2023-03-29T17:18:31.392Z,102030.61
2023-03-29T17:21:03.409Z,102028.82
2023-03-29T17:23:34.488Z,102020.98
2023-03-29T17:26:06.586Z,102015.96
2023-03-29T17:28:38.746Z,102013.11
2023-03-29T17:31:10.419Z,102011.65
2023-03-29T17:33:41.697Z,102014.52
2023-03-29T17:36:14.117Z,102024.12
2023-03-29T17:38:48.900Z,102026.77
2023-03-29T17:41:21.471Z,102036.88
2023-03-29T17:43:52.492Z,102040.85
2023-03-29T17:46:23.864Z,102040.13
2023-03-29T17:48:56.058Z,102045.05
2023-03-29T17:51:27.881Z,102051.42
2023-03-29T17:53:58.608Z,102057.98
2023-03-29T17:56:29.891Z,102059.80
2023-03-29T17:59:01.516Z,102059.04
2023-03-29T18:01:32.989Z,102068.88
2023-03-29T18:04:04.798Z,102066.46
2023-03-29T18:06:36.470Z,102067.27
2023-03-29T18:09:07.865Z,102069.32
2023-03-29T18:11:39.590Z,102075.40
2023-03-29T18:14:10.654Z,102079.48
2023-03-29T18:16:42.827Z,102081.52
2023-03-29T18:19:13.919Z,102085.30
2023-03-29T18:21:44.869Z,102088.38
2023-03-29T18:24:16.316Z,102084.94
2023-03-29T18:26:47.150Z,102085.80
2023-03-29T18:29:18.309Z,102089.73
2023-03-29T18:31:49.591Z,102091.07
2023-03-29T18:34:20.851Z,102088.01
2023-03-29T18:36:53.746Z,102097.84
2023-03-29T18:39:32.156Z,102101.17
2023-03-29T18:42:03.739Z,102104.77
2023-03-29T18:44:35.095Z,102101.98
2023-03-29T18:47:06.239Z,102107.73
2023-03-29T18:49:37.871Z,102109.54
2023-03-29T18:52:12.005Z,102115.05
2023-03-29T18:54:43.156Z,102117.54
2023-03-29T18:57:14.896Z,102114.27
2023-03-29T18:59:46.046Z,102111.94
2023-03-29T19:02:17.245Z,102109.98
2023-03-29T19:04:48.526Z,102113.04
2023-03-29T19:07:20.816Z,102115.87
2023-03-29T19:09:52.255Z,102119.59
2023-03-29T19:12:23.632Z,102123.96
2023-03-29T19:14:54.959Z,102123.66
2023-03-29T19:17:25.928Z,102125.30
2023-03-29T19:19:57.593Z,102128.80
2023-03-29T19:22:28.476Z,102128.41
2023-03-29T19:24:59.612Z,102127.38
2023-03-29T19:27:30.738Z,102130.45
2023-03-29T19:30:02.464Z,102130.98
2023-03-29T19:32:33.854Z,102139.27
2023-03-29T19:35:05.654Z,102142.15
2023-03-29T19:37:36.774Z,102141.78
2023-03-29T19:40:11.200Z,102144.89
2023-03-29T19:42:42.463Z,102144.45
2023-03-29T19:45:14.958Z,102137.66
2023-03-29T19:47:47.762Z,102142.29
2023-03-29T19:50:20.131Z,102143.25
2023-03-29T19:52:51.754Z,102138.17
2023-03-29T19:55:22.787Z,102136.02
2023-03-29T19:57:53.777Z,102135.08
2023-03-29T20:00:25.507Z,102138.71
2023-03-29T20:02:57.010Z,102133.32
2023-03-29T20:05:28.654Z,102131.07
2023-03-29T20:07:59.465Z,102132.71
2023-03-29T20:10:30.666Z,102131.04
2023-03-29T20:13:01.758Z,102132.14
2023-03-29T20:15:32.660Z,102126.94
2023-03-29T20:18:03.588Z,102129.95
2023-03-29T20:20:35.865Z,102124.57
2023-03-29T20:23:07.233Z,102124.16
2023-03-29T20:25:38.713Z,102121.97
2023-03-29T20:28:09.966Z,102122.73
2023-03-29T20:30:42.234Z,102125.33
2023-03-29T20:33:13.880Z,102129.70
2023-03-29T20:35:47.231Z,102131.25
2023-03-29T20:38:18.327Z,102134.55
2023-03-29T20:40:50.294Z,102130.48
2023-03-29T20:43:21.745Z,102125.67
2023-03-29T20:45:54.350Z,102121.88
2023-03-29T20:48:31.467Z,102118.29
2023-03-29T20:51:10.563Z,102121.06
2023-03-29T20:53:44.619Z,102124.39
2023-03-29T20:56:16.071Z,102124.08
2023-03-29T20:58:47.897Z,102125.99
2023-03-29T21:01:22.039Z,102126.31
2023-03-29T21:03:53.455Z,102125.16
2023-03-29T21:06:25.614Z,102124.69
2023-03-29T21:08:57.508Z,102128.63
2023-03-29T21:11:29.184Z,102128.23
2023-03-29T21:14:00.348Z,102127.45
2023-03-29T21:16:31.744Z,102122.82
2023-03-29T21:19:03.055Z,102120.17
2023-03-29T21:21:35.091Z,102119.27
2023-03-29T21:24:07.231Z,102119.90
2023-03-29T21:26:38.320Z,102124.23
2023-03-29T21:29:09.647Z,102131.57
2023-03-29T21:31:40.971Z,102130.64
2023-03-29T21:34:12.595Z,102127.23
2023-03-29T21:36:43.865Z,102129.05
2023-03-29T21:39:15.578Z,102127.38
2023-03-29T21:41:46.515Z,102130.36
2023-03-29T21:44:17.946Z,102127.88
2023-03-29T21:46:49.485Z,102123.36
2023-03-29T21:49:21.121Z,102120.13
2023-03-29T21:51:52.716Z,102124.59
2023-03-29T21:54:24.460Z,102123.02
2023-03-29T21:56:55.728Z,102127.12
2023-03-29T21:59:27.969Z,102128.36
2023-03-29T22:01:59.605Z,102124.39
2023-03-29T22:04:37.092Z,102119.36
2023-03-29T22:07:10.845Z,102121.60
2023-03-29T22:09:42.518Z,102118.20
2023-03-29T22:12:15.796Z,102121.38
2023-03-29T22:14:47.190Z,102123.92
2023-03-29T22:17:19.535Z,102120.10
2023-03-29T22:19:50.764Z,102124.10
2023-03-29T22:22:22.113Z,102120.67
2023-03-29T22:24:54.721Z,102118.48
2023-03-29T22:27:26.024Z,102122.08
2023-03-29T22:29:58.744Z,102120.02
2023-03-29T22:32:31.690Z,102118.44
2023-03-29T22:35:03.101Z,102117.06
2023-03-29T22:37:34.667Z,102115.91
2023-03-29T22:40:06.501Z,102112.27
2023-03-29T22:42:37.897Z,102115.83
2023-03-29T22:45:11.706Z,102118.54
2023-03-29T22:47:43.391Z,102112.55
2023-03-29T22:50:15.158Z,102106.95
2023-03-29T22:52:46.742Z,102111.61
2023-03-29T22:55:18.577Z,102112.20
2023-03-29T22:57:49.630Z,102113.38
2023-03-29T23:00:22.897Z,102115.92
2023-03-29T23:02:54.152Z,102115.38
2023-03-29T23:05:26.003Z,102114.60
2023-03-29T23:07:57.403Z,102112.13
2023-03-29T23:10:30.625Z,102110.27
2023-03-29T23:13:08.987Z,102105.33
2023-03-29T23:15:45.337Z,102105.62
2023-03-29T23:18:21.174Z,102109.70
2023-03-29T23:20:54.605Z,102105.92
2023-03-29T23:23:27.366Z,102108.10
2023-03-29T23:25:58.456Z,102103.88
2023-03-29T23:28:31.568Z,102107.73
2023-03-29T23:31:04.785Z,102103.45
2023-03-29T23:33:38.701Z,102108.15
2023-03-29T23:36:12.367Z,102103.85
2023-03-29T23:38:45.589Z,102104.52
2023-03-29T23:41:17.748Z,102103.59
2023-03-29T23:43:50.620Z,102099.15
2023-03-29T23:46:22.121Z,102100.10
2023-03-29T23:48:53.591Z,102092.77
2023-03-29T23:51:29.029Z,102094.84
2023-03-29T23:54:00.187Z,102086.67
2023-03-29T23:56:31.179Z,102085.80
2023-03-29T23:59:03.304Z,102087.98
